Time;durP1;ratioP1;P1;durP2;ratioP2;P2;SDS_P1;SDS_P2;PMS_P1;PMS_P2;Temp;Humidity;BMP_temperature;BMP_pressure;BME280_temperature;BME280_humidity;BME280_pressure;Samples;Min_cycle;Max_cycle;Signal;HPM_P1;HPM_P2
2024/01/13 00:03:13;;;;;;;;;;;6.00;56.50;;;4.36;60.23;101884.22;12250638;19;19919;-85
2024/01/13 00:07:15;;;;;;;;;;;6.00;56.50;;;4.30;60.44;101869.63;12248169;19;19915;-85
2024/01/13 00:11:16;;;;;;;;;;;6.00;56.50;;;4.40;60.26;101880.69;12250966;19;19919;-85
2024/01/13 00:15:19;;;;;;;;;;;6.10;56.50;;;4.22;60.50;101838.69;12248582;19;19910;-85
2024/01/13 00:19:20;;;;;;;;;;;6.10;56.50;;;4.39;60.41;101872.09;12248916;19;19926;-85
2024/01/13 00:23:22;;;;;;;;;;;6.10;56.50;;;4.17;60.21;101829.25;12247078;19;19907;-86
2024/01/13 00:27:23;;;;;;;;;;;6.10;56.70;;;4.37;60.46;101863.50;12245210;19;19927;-87
2024/01/13 00:31:25;;;;;;;;;;;6.10;56.60;;;4.16;60.28;101819.81;12245899;19;19946;-86
2024/01/13 00:35:26;;;;;;;;;;;6.10;56.60;;;4.46;60.29;101869.47;12245834;19;19907;-86
2024/01/13 00:39:28;;;;;;;;;;;6.30;56.70;;;4.48;60.30;101865.09;12246567;19;19932;-85
2024/01/13 00:43:30;;;;;;;;;;;6.20;56.60;;;4.48;60.36;101862.53;12246915;19;19938;-86
2024/01/13 00:47:31;;;;;;;;;;;6.20;56.60;;;4.52;60.28;101866.81;12244908;19;19949;-87
2024/01/13 00:51:33;;;;;;;;;;;6.20;56.60;;;4.47;60.31;101856.50;12247828;19;19935;-86
2024/01/13 00:55:35;;;;;;;;;;;6.30;56.60;;;4.52;60.28;101869.38;12243708;19;19911;-86
2024/01/13 00:59:36;;;;;;;;;;;6.40;56.70;;;4.50;60.49;101853.03;12247825;19;19943;-86
2024/01/13 01:03:38;;;;;;;;;;;6.20;56.60;;;4.46;60.52;101848.78;12244773;19;19923;-86
2024/01/13 01:07:39;;;;;;;;;;;6.20;56.70;;;4.52;60.29;101848.69;12244385;19;19919;-86
2024/01/13 01:11:42;;;;;;;;;;;6.20;57.00;;;4.58;60.46;101856.38;12244942;19;20368;-87
2024/01/13 01:15:44;;;;;;;;;;;6.20;56.60;;;4.54;60.35;101832.28;12244226;19;19932;-86
2024/01/13 01:19:45;;;;;;;;;;;6.30;56.70;;;4.33;60.28;101797.19;12246481;19;19915;-87
2024/01/13 01:23:48;;;;;;;;;;;6.20;56.60;;;4.56;60.34;101830.50;12245969;19;20266;-86
2024/01/13 01:27:49;;;;;;;;;;;6.40;56.70;;;4.55;60.30;101809.84;12243453;19;19927;-87
2024/01/13 01:31:51;;;;;;;;;;;6.30;56.70;;;4.53;60.50;101817.63;12254890;19;19929;-86
2024/01/13 01:35:52;;;;;;;;;;;6.40;56.70;;;4.35;60.35;101766.16;12255690;19;20254;-86
2024/01/13 01:39:54;;;;;;;;;;;6.30;56.60;;;4.62;60.39;101798.56;12256903;19;20247;-86
2024/01/13 01:43:56;;;;;;;;;;;6.30;56.60;;;4.66;60.47;101808.81;12257968;19;19919;-86
2024/01/13 01:47:58;;;;;;;;;;;6.30;56.60;;;4.57;60.55;101782.25;12254128;19;19911;-87
2024/01/13 01:52:00;;;;;;;;;;;6.30;56.60;;;4.61;60.38;101778.72;12256748;19;19919;-87
2024/01/13 01:56:04;;;;;;;;;;;6.30;56.60;;;4.70;60.31;101783.78;12252035;19;19939;-86
2024/01/13 02:00:08;;;;;;;;;;;6.40;56.70;;;4.64;60.33;101771.78;12255852;19;19918;-86
2024/01/13 02:04:13;;;;;;;;;;;6.40;56.70;;;4.55;60.41;101750.38;12255277;19;19938;-84
2024/01/13 02:08:16;;;;;;;;;;;6.40;56.70;;;4.66;60.28;101766.59;12253744;19;19911;-84
2024/01/13 02:12:18;;;;;;;;;;;6.40;56.70;;;4.58;60.22;101745.13;12254989;19;19947;-86
2024/01/13 02:16:19;;;;;;;;;;;6.40;56.60;;;4.69;60.27;101743.25;12249332;19;20341;-86
2024/01/13 02:20:21;;;;;;;;;;;6.40;56.70;;;4.71;60.36;101758.78;12253606;19;20249;-86
2024/01/13 02:24:22;;;;;;;;;;;6.40;56.70;;;4.74;60.55;101749.22;12256475;19;20365;-86
2024/01/13 02:28:24;;;;;;;;;;;6.70;56.80;;;4.78;60.53;101748.31;12252675;19;20249;-87
2024/01/13 02:32:26;;;;;;;;;;;6.40;56.70;;;4.73;60.47;101729.41;12256114;19;20357;-86
2024/01/13 02:36:27;;;;;;;;;;;6.70;56.80;;;4.79;60.54;101734.50;12251182;19;20239;-86
2024/01/13 02:40:29;;;;;;;;;;;6.50;56.70;;;4.61;60.41;101688.19;12255629;19;20331;-86
2024/01/13 02:44:30;;;;;;;;;;;6.50;56.70;;;4.77;60.37;101714.69;12255767;19;19915;-86
2024/01/13 02:48:42;;;;;;;;;;;6.50;56.70;;;4.83;60.53;101717.16;12251127;19;19989;-86
2024/01/13 02:52:47;;;;;;;;;;;6.50;56.70;;;4.83;60.43;101712.00;12253400;19;19938;-86
2024/01/13 02:56:48;;;;;;;;;;;6.50;56.70;;;4.77;60.32;101689.66;12243343;19;20411;-86
2024/01/13 03:00:49;;;;;;;;;;;6.50;56.70;;;4.84;60.56;101688.69;12253411;19;19951;-86
2024/01/13 03:04:51;;;;;;;;;;;6.50;56.70;;;4.88;60.41;101692.94;12252171;19;20349;-87
2024/01/13 03:08:54;;;;;;;;;;;6.50;56.70;;;4.91;60.60;101691.19;12248357;19;20257;-86
2024/01/13 03:12:55;;;;;;;;;;;6.50;56.70;;;4.91;60.55;101680.81;12251755;19;19911;-86
2024/01/13 03:16:56;;;;;;;;;;;6.50;56.70;;;4.92;60.58;101667.88;12248521;19;19953;-87
2024/01/13 03:20:58;;;;;;;;;;;6.60;56.80;;;4.68;60.34;101625.13;12252690;19;19922;-86
2024/01/13 03:24:59;;;;;;;;;;;6.50;56.70;;;4.93;60.42;101666.97;12250077;19;19918;-86
2024/01/13 03:29:01;;;;;;;;;;;6.60;56.70;;;4.91;60.32;101657.53;12248148;19;19919;-86
2024/01/13 03:33:02;;;;;;;;;;;6.60;56.80;;;4.81;60.38;101652.53;12249721;19;19926;-86
2024/01/13 03:37:04;;;;;;;;;;;6.60;56.70;;;4.86;60.32;101658.47;12247756;19;19939;-86
2024/01/13 03:41:06;;;;;;;;;;;6.50;56.70;;;4.78;60.43;101639.63;12251919;19;19915;-86
2024/01/13 03:45:07;;;;;;;;;;;6.50;56.70;;;4.85;60.36;101648.13;12249029;19;19917;-86
2024/01/13 03:49:09;;;;;;;;;;;6.50;56.70;;;4.72;60.54;101623.34;12251426;19;19907;-87
2024/01/13 03:53:10;;;;;;;;;;;6.50;57.00;;;4.62;60.43;101605.41;12248666;19;19949;-87
2024/01/13 03:57:12;;;;;;;;;;;6.50;56.80;;;4.75;60.47;101634.53;12247363;19;19918;-87
2024/01/13 04:01:14;;;;;;;;;;;6.80;56.90;;;4.81;60.52;101624.06;12249594;19;19915;-87
2024/01/13 04:05:16;;;;;;;;;;;6.50;56.80;;;4.84;60.39;101624.00;12248120;19;19919;-87
2024/01/13 04:09:17;;;;;;;;;;;6.50;56.80;;;4.81;60.44;101615.44;12251212;19;20266;-87
2024/01/13 04:13:19;;;;;;;;;;;6.50;56.80;;;4.70;60.39;101583.69;12249508;19;19918;-87
2024/01/13 04:17:20;;;;;;;;;;;6.50;56.80;;;4.73;60.56;101594.88;12243712;19;19941;-88
2024/01/13 04:21:22;;;;;;;;;;;6.50;56.80;;;4.73;60.50;101610.41;12249460;19;19927;-87
2024/01/13 04:25:24;;;;;;;;;;;6.50;56.80;;;4.83;60.46;101632.66;12246915;19;19922;-87
2024/01/13 04:29:25;;;;;;;;;;;6.50;56.80;;;4.82;60.49;101618.00;12249226;19;19911;-87
2024/01/13 04:33:27;;;;;;;;;;;6.50;56.80;;;4.69;60.54;101598.38;12248737;19;19970;-88
2024/01/13 04:37:28;;;;;;;;;;;6.40;56.80;;;4.73;60.55;101597.47;12244681;19;19915;-88
2024/01/13 04:41:29;;;;;;;;;;;6.40;56.80;;;4.79;60.56;101604.25;12248609;19;19942;-88
2024/01/13 04:45:31;;;;;;;;;;;6.40;56.80;;;4.74;60.42;101591.41;12244007;19;19931;-88
2024/01/13 04:49:32;;;;;;;;;;;6.50;56.90;;;4.65;60.62;101569.13;12247716;19;19923;-88
2024/01/13 04:53:34;;;;;;;;;;;6.40;56.90;;;4.74;60.33;101591.41;12246628;19;19919;-88
2024/01/13 04:57:36;;;;;;;;;;;6.40;56.90;;;4.70;60.59;101587.16;12244625;19;20333;-88
2024/01/13 05:01:37;;;;;;;;;;;6.40;57.00;;;4.79;60.39;101583.56;12247154;19;19923;-87
2024/01/13 05:05:38;;;;;;;;;;;6.40;56.90;;;4.67;60.60;101561.31;12245932;19;19986;-87
2024/01/13 05:09:40;;;;;;;;;;;6.40;57.00;;;4.70;60.53;101563.88;12248387;19;19911;-87
2024/01/13 05:13:41;;;;;;;;;;;6.40;57.00;;;4.79;60.48;101574.06;12247319;19;19915;-87
2024/01/13 05:17:42;;;;;;;;;;;6.60;57.00;;;4.80;60.68;101578.34;12243981;19;19911;-87
2024/01/13 05:21:44;;;;;;;;;;;6.40;57.00;;;4.73;60.64;101563.81;12246472;19;20279;-87
2024/01/13 05:25:45;;;;;;;;;;;6.40;56.90;;;4.74;60.52;101568.09;12246539;19;20314;-87
2024/01/13 05:29:46;;;;;;;;;;;6.40;57.00;;;4.77;60.51;101573.22;12246951;19;19918;-87
2024/01/13 05:33:48;;;;;;;;;;;6.40;57.00;;;4.72;60.54;101549.16;12242771;19;20370;-88
2024/01/13 05:37:49;;;;;;;;;;;6.50;57.10;;;4.72;60.62;101551.75;12242562;19;20388;-87
2024/01/13 05:41:50;;;;;;;;;;;6.50;57.00;;;4.83;60.49;101552.44;12243558;19;19934;-88
2024/01/13 05:45:52;;;;;;;;;;;6.40;57.00;;;4.66;60.69;101526.00;12241985;19;19938;-87
2024/01/13 05:49:53;;;;;;;;;;;6.40;57.00;;;4.78;60.71;101559.44;12243913;19;19923;-88
2024/01/13 05:53:55;;;;;;;;;;;6.40;57.00;;;4.53;60.66;101502.06;12243747;19;19926;-87
2024/01/13 05:57:56;;;;;;;;;;;6.40;57.00;;;4.79;60.66;101553.38;12241064;19;19915;-88
2024/01/13 06:01:58;;;;;;;;;;;6.40;57.00;;;4.64;60.67;101522.56;12245086;19;20021;-87
2024/01/13 06:05:59;;;;;;;;;;;6.40;57.00;;;4.58;60.64;101514.94;12243622;19;19919;-88
2024/01/13 06:10:01;;;;;;;;;;;6.50;57.00;;;4.76;60.53;101539.63;12243643;19;20164;-88
2024/01/13 06:14:02;;;;;;;;;;;6.40;57.00;;;4.79;60.75;101539.56;12243053;19;19914;-88
2024/01/13 06:18:04;;;;;;;;;;;6.40;57.00;;;4.65;60.55;101513.97;12248488;19;19919;-88
2024/01/13 06:22:05;;;;;;;;;;;6.40;57.00;;;4.73;60.54;101517.25;12255649;19;20325;-88
2024/01/13 06:26:07;;;;;;;;;;;6.40;57.00;;;4.79;60.52;101526.66;12253934;19;20333;-88
2024/01/13 06:30:10;;;;;;;;;;;6.40;57.00;;;4.74;60.61;101508.59;12255617;19;19950;-88
2024/01/13 06:34:12;;;;;;;;;;;6.40;57.00;;;4.70;60.70;101495.75;12252953;19;19923;-88
2024/01/13 06:38:14;;;;;;;;;;;6.70;57.10;;;4.69;60.75;101487.13;12249666;19;19950;-88
2024/01/13 06:42:15;;;;;;;;;;;6.50;57.10;;;4.69;60.75;101486.28;12254851;19;19915;-87
2024/01/13 06:46:17;;;;;;;;;;;6.40;57.00;;;4.80;60.60;101497.28;12249348;19;19918;-88
2024/01/13 06:50:18;;;;;;;;;;;6.40;57.00;;;4.71;60.54;101479.34;12260760;19;19918;-88
2024/01/13 06:54:24;;;;;;;;;;;6.20;56.90;;;4.69;60.67;101478.53;12253786;19;19907;-87
2024/01/13 06:58:25;;;;;;;;;;;6.40;57.00;;;4.36;60.50;101418.78;12245386;19;19926;-89
2024/01/13 07:02:27;;;;;;;;;;;6.70;57.20;;;4.74;60.75;101477.56;12249889;19;19929;-87
2024/01/13 07:06:28;;;;;;;;;;;6.40;57.00;;;4.43;60.79;101425.56;12251321;19;19934;-90
2024/01/13 07:10:30;;;;;;;;;;;6.40;57.10;;;4.55;60.67;101427.06;12257212;19;20004;-89
2024/01/13 07:14:32;;;;;;;;;;;6.60;57.20;;;4.72;60.76;101450.00;12252682;19;20330;-89
2024/01/13 07:18:33;;;;;;;;;;;6.40;57.20;;;4.58;60.79;101424.41;12253822;19;19919;-89
2024/01/13 07:22:35;;;;;;;;;;;6.40;57.20;;;4.70;60.60;101428.47;12253464;19;19926;-88
2024/01/13 07:26:39;;;;;;;;;;;6.40;57.20;;;4.53;60.61;101408.13;12252217;19;19919;-89
2024/01/13 07:30:41;;;;;;;;;;;6.40;57.20;;;4.75;60.77;101437.00;12254763;19;19917;-89
2024/01/13 07:34:42;;;;;;;;;;;6.40;57.20;;;4.49;60.56;101390.97;12258428;19;19975;-89
2024/01/13 07:38:44;;;;;;;;;;;6.50;57.20;;;4.57;60.85;101402.88;12266834;19;19923;-89
2024/01/13 07:42:45;;;;;;;;;;;6.40;57.10;;;4.71;60.64;101422.44;12277774;19;19936;-89
2024/01/13 07:46:47;;;;;;;;;;;6.40;57.20;;;4.62;60.79;101408.81;12259573;19;19923;-88
2024/01/13 07:50:48;;;;;;;;;;;6.40;57.20;;;4.65;60.79;101406.16;12281640;19;19918;-88
2024/01/13 07:54:50;;;;;;;;;;;6.30;57.10;;;4.52;60.69;101390.91;12287775;19;19935;-88
2024/01/13 07:58:51;;;;;;;;;;;6.60;57.20;;;4.64;60.66;101401.00;12269269;19;19934;-88
2024/01/13 08:02:53;;;;;;;;;;;6.40;57.20;;;4.57;60.60;101383.91;12264620;19;19919;-89
2024/01/13 08:06:55;;;;;;;;;;;6.40;57.20;;;4.56;60.68;101384.78;12264763;19;20618;-88
2024/01/13 08:10:56;;;;;;;;;;;6.40;57.20;;;4.73;60.73;101411.19;12259520;19;19922;-89
2024/01/13 08:14:58;;;;;;;;;;;6.40;57.20;;;4.54;60.70;101371.91;12274779;19;19994;-89
2024/01/13 08:19:01;;;;;;;;;;;6.40;57.20;;;4.77;60.63;101407.63;12256893;19;19922;-89
2024/01/13 08:23:02;;;;;;;;;;;6.40;57.20;;;4.71;60.72;101384.50;12270994;19;19922;-89
2024/01/13 08:27:04;;;;;;;;;;;6.40;57.20;;;4.73;60.68;101377.56;12259490;19;19918;-89
2024/01/13 08:31:05;;;;;;;;;;;6.40;57.20;;;4.82;60.72;101386.84;12259763;19;19962;-90
2024/01/13 08:35:07;;;;;;;;;;;6.40;57.20;;;4.38;60.80;101311.88;12267824;19;19919;-91
2024/01/13 08:43:22;;;;;;;;;;;6.40;57.20;;;4.74;60.71;101368.91;12260234;19;19922;-90
2024/01/13 08:47:23;;;;;;;;;;;6.50;57.40;;;4.75;60.71;101367.16;12260674;19;19934;-89
2024/01/13 08:51:37;;;;;;;;;;;6.40;57.30;;;4.84;60.73;101378.19;12255082;19;19914;-89
2024/01/13 08:55:39;;;;;;;;;;;6.50;57.30;;;4.73;60.79;101367.22;12279783;19;19919;-89
2024/01/13 08:59:40;;;;;;;;;;;6.50;57.30;;;4.78;60.64;101359.31;12253027;19;20432;-88
2024/01/13 09:03:41;;;;;;;;;;;6.40;57.30;;;4.72;60.74;101351.69;12244333;19;19928;-87
2024/01/13 09:07:43;;;;;;;;;;;6.50;57.30;;;4.78;60.75;101357.63;12244659;19;19919;-87
2024/01/13 09:11:46;;;;;;;;;;;6.50;57.40;;;4.79;60.94;101348.13;12245818;19;20285;-87
2024/01/13 09:15:48;;;;;;;;;;;6.50;57.40;;;4.44;60.93;101274.69;12253835;19;19925;-89
2024/01/13 09:19:49;;;;;;;;;;;6.50;57.50;;;4.45;60.96;101276.38;12270242;19;19914;-89
2024/01/13 09:23:51;;;;;;;;;;;6.50;57.40;;;4.65;60.86;101294.09;12251627;19;19970;-88
2024/01/13 09:27:53;;;;;;;;;;;6.50;57.40;;;4.71;60.98;101301.69;12247489;19;19939;-89
2024/01/13 09:31:54;;;;;;;;;;;6.50;57.40;;;4.86;61.03;101319.50;12253357;19;20296;-88
2024/01/13 09:35:56;;;;;;;;;;;6.60;57.40;;;4.85;60.95;101315.19;12245470;19;19910;-88
2024/01/13 09:39:57;;;;;;;;;;;6.50;57.40;;;4.67;60.97;101269.00;12247648;19;20002;-88
2024/01/13 09:44:03;;;;;;;;;;;6.60;57.50;;;4.92;61.05;101305.56;12247910;19;19930;-89
2024/01/13 09:48:07;;;;;;;;;;;6.60;57.40;;;4.93;60.92;101301.22;12245983;19;20003;-88
2024/01/13 09:52:10;;;;;;;;;;;6.60;57.50;;;4.92;60.97;101281.44;12250888;19;20289;-90
2024/01/13 09:56:22;;;;;;;;;;;6.70;57.50;;;5.03;61.08;101292.38;12255488;19;19923;-88
2024/01/13 10:00:23;;;;;;;;;;;6.70;57.50;;;4.99;61.08;101295.91;12257825;19;20337;-87
2024/01/13 10:04:25;;;;;;;;;;;6.70;57.50;;;4.59;61.00;101230.41;12259256;19;19926;-88
2024/01/13 10:08:31;;;;;;;;;;;6.70;57.50;;;5.06;60.84;101280.22;12256281;19;19910;-89
2024/01/13 10:12:33;;;;;;;;;;;6.70;57.40;;;5.04;61.02;101283.72;12257469;19;19923;-88
2024/01/13 10:16:35;;;;;;;;;;;6.70;57.40;;;4.88;61.08;101253.00;12255708;19;20342;-88
2024/01/13 10:20:36;;;;;;;;;;;6.70;57.40;;;4.82;61.07;101236.78;12259968;19;19922;-88
2024/01/13 10:24:37;;;;;;;;;;;6.70;57.50;;;5.06;61.10;101272.44;12257335;19;19932;-87
2024/01/13 10:28:39;;;;;;;;;;;6.80;57.50;;;5.16;60.88;101288.63;12253582;19;19911;-88
2024/01/13 10:32:42;;;;;;;;;;;6.70;57.40;;;5.13;60.87;101268.00;12257514;19;19942;-88
2024/01/13 10:36:43;;;;;;;;;;;6.80;57.40;;;5.18;60.94;101273.03;12255141;19;19929;-89
2024/01/13 10:40:45;;;;;;;;;;;6.80;57.40;;;5.13;61.07;101260.22;12260273;19;20531;-88
2024/01/13 10:44:51;;;;;;;;;;;6.80;57.40;;;5.16;60.93;101267.03;12257359;19;19992;-88
2024/01/13 10:49:19;;;;;;;;;;;6.80;57.40;;;5.22;60.88;101272.09;12252208;19;20293;-88
2024/01/13 10:53:25;;;;;;;;;;;6.80;57.40;;;5.19;61.13;101262.66;12258034;19;19937;-88
2024/01/13 10:57:27;;;;;;;;;;;6.90;57.40;;;5.06;61.12;101217.25;12252182;19;20430;-88
2024/01/13 11:01:29;;;;;;;;;;;6.80;57.30;;;5.14;61.01;101223.09;12254051;19;20334;-89
2024/01/13 11:05:32;;;;;;;;;;;6.90;57.40;;;5.17;61.00;101216.97;12254603;19;19935;-89
2024/01/13 11:09:34;;;;;;;;;;;6.80;57.40;;;5.18;61.09;101206.56;12256561;19;19918;-88
2024/01/13 11:13:49;;;;;;;;;;;6.90;57.40;;;5.16;61.05;101195.44;12254380;19;19915;-88
2024/01/13 11:17:51;;;;;;;;;;;6.90;57.40;;;5.26;60.91;101185.66;12251941;19;19959;-88
2024/01/13 11:21:52;;;;;;;;;;;7.00;57.40;;;5.13;60.98;101141.16;12257611;19;19956;-88
2024/01/13 11:25:53;;;;;;;;;;;7.10;57.50;;;5.27;60.97;101161.50;12254737;19;19931;-87
2024/01/13 11:29:57;;;;;;;;;;;7.10;57.50;;;4.93;61.01;101101.97;12257522;19;19926;-89
2024/01/13 11:34:02;;;;;;;;;;;6.90;57.40;;;5.27;60.93;101146.81;12254667;19;19930;-89
2024/01/13 11:38:06;;;;;;;;;;;6.90;57.40;;;5.18;60.90;101130.66;12252840;19;20020;-88
2024/01/13 11:42:09;;;;;;;;;;;6.90;57.40;;;5.16;60.89;101120.34;12257174;19;19938;-88
2024/01/13 11:46:11;;;;;;;;;;;6.90;57.30;;;5.29;60.91;101132.09;12254228;19;19941;-89
2024/01/13 11:50:35;;;;;;;;;;;6.90;57.30;;;5.29;60.93;101113.09;12255773;19;19925;-89
2024/01/13 11:54:46;;;;;;;;;;;6.90;57.30;;;5.15;61.08;101084.97;12251749;19;19998;-90
2024/01/13 11:58:48;;;;;;;;;;;6.90;57.30;;;5.14;61.13;101078.13;12248887;19;19922;-89
2024/01/13 12:02:50;;;;;;;;;;;7.10;57.40;;;5.08;61.12;101063.59;12252695;19;19935;-89
2024/01/13 12:06:53;;;;;;;;;;;6.90;57.40;;;5.23;61.04;101080.44;12248037;19;19930;-89
2024/01/13 12:10:55;;;;;;;;;;;6.90;57.30;;;5.22;60.99;101055.47;12251097;19;19919;-90
2024/01/13 12:15:03;;;;;;;;;;;6.90;57.30;;;5.29;61.10;101058.72;12249244;19;20357;-88
2024/01/13 12:19:04;;;;;;;;;;;6.90;57.30;;;5.25;60.96;101034.66;12252355;19;20342;-88
2024/01/13 12:23:07;;;;;;;;;;;6.90;57.30;;;5.24;60.92;101025.19;12252665;19;20336;-90
2024/01/13 12:27:08;;;;;;;;;;;6.90;57.30;;;5.18;61.14;101002.06;12247316;19;19970;-89
2024/01/13 12:31:10;;;;;;;;;;;6.90;57.30;;;5.19;60.99;100988.25;12249772;19;19922;-90
2024/01/13 12:35:12;;;;;;;;;;;6.90;57.30;;;5.26;60.98;100983.72;12249968;19;19915;-89
2024/01/13 12:39:14;;;;;;;;;;;6.90;57.40;;;4.81;61.05;100907.38;12250723;19;20388;-90
2024/01/13 12:43:17;;;;;;;;;;;6.90;57.30;;;5.13;61.10;100957.34;12250525;19;19907;-90
2024/01/13 12:47:18;;;;;;;;;;;6.90;57.30;;;4.80;61.01;100892.72;12250553;19;19915;-89
2024/01/13 12:51:20;;;;;;;;;;;6.90;57.40;;;5.22;61.09;100957.06;12252278;19;19914;-88
2024/01/13 12:55:22;;;;;;;;;;;6.90;57.40;;;4.94;61.01;100899.22;12250013;19;19931;-89
2024/01/13 12:59:27;;;;;;;;;;;6.90;57.40;;;4.88;61.00;100890.75;12253788;19;19918;-90
2024/01/13 13:03:29;;;;;;;;;;;6.90;57.50;;;5.14;60.94;100932.31;12250990;19;19915;-88
2024/01/13 13:07:31;;;;;;;;;;;6.90;57.60;;;5.22;61.15;100946.72;12245993;19;19911;-88
2024/01/13 13:11:33;;;;;;;;;;;6.90;57.60;;;5.03;61.09;100898.97;12248779;19;19919;-88
2024/01/13 13:15:35;;;;;;;;;;;6.90;57.60;;;5.20;60.89;100924.38;12249630;19;19923;-89
2024/01/13 13:19:37;;;;;;;;;;;6.90;57.60;;;5.20;61.01;100919.19;12249590;19;20283;-89
2024/01/13 13:23:39;;;;;;;;;;;6.90;57.50;;;5.04;61.13;100890.31;12248737;19;20274;-89
2024/01/13 13:27:40;;;;;;;;;;;6.80;57.50;;;5.22;60.98;100914.81;12254933;19;20015;-89
2024/01/13 13:31:42;;;;;;;;;;;6.90;57.60;;;5.15;61.06;100901.19;12262624;19;19929;-89
2024/01/13 13:35:43;;;;;;;;;;;6.90;57.50;;;5.24;60.97;100908.69;12255381;19;20355;-90
2024/01/13 13:39:45;;;;;;;;;;;6.90;57.50;;;5.15;61.00;100877.91;12260611;19;19923;-89
2024/01/13 13:43:46;;;;;;;;;;;6.90;57.40;;;5.24;61.11;100894.91;12260761;19;19925;-90
2024/01/13 13:47:48;;;;;;;;;;;7.20;57.60;;;5.21;61.04;100880.31;12248942;19;19919;-89
2024/01/13 13:51:51;;;;;;;;;;;6.80;57.40;;;5.19;61.16;100869.16;12261597;19;19915;-90
2024/01/13 13:55:53;;;;;;;;;;;6.90;57.50;;;5.23;61.04;100875.91;12259251;19;19922;-90
2024/01/13 13:59:55;;;;;;;;;;;7.00;57.60;;;5.14;61.18;100860.69;12259517;19;19919;-90
2024/01/13 14:03:56;;;;;;;;;;;6.80;57.50;;;5.13;61.01;100848.66;12262291;19;19989;-89
2024/01/13 14:07:58;;;;;;;;;;;6.80;57.50;;;5.06;61.04;100841.94;12256709;19;19927;-89
2024/01/13 14:11:59;;;;;;;;;;;6.80;57.50;;;5.00;61.22;100835.22;12262096;19;19922;-89
2024/01/13 14:16:01;;;;;;;;;;;6.80;57.50;;;5.07;61.14;100841.03;12259226;19;19925;-90
2024/01/13 14:20:04;;;;;;;;;;;6.90;57.60;;;4.94;61.01;100816.44;12260263;19;20017;-89
2024/01/13 14:24:06;;;;;;;;;;;6.80;57.50;;;5.11;61.18;100853.00;12260671;19;20383;-89
2024/01/13 14:28:07;;;;;;;;;;;6.80;57.50;;;5.17;61.20;100859.75;12258052;19;19915;-89
2024/01/13 14:32:09;;;;;;;;;;;6.80;57.60;;;5.05;61.09;100838.53;12262519;19;19921;-90
2024/01/13 14:36:10;;;;;;;;;;;6.80;57.60;;;4.86;61.13;100794.25;12252825;19;19919;-89
2024/01/13 14:40:13;;;;;;;;;;;6.80;57.70;;;5.06;61.18;100806.56;12253784;19;19923;-89
2024/01/13 14:44:17;;;;;;;;;;;6.80;57.50;;;5.07;61.03;100802.22;12258148;19;19923;-89
2024/01/13 14:48:18;;;;;;;;;;;6.70;57.50;;;5.10;61.05;100803.00;12255681;19;20330;-89
2024/01/13 14:52:42;;;;;;;;;;;6.80;57.50;;;4.83;61.15;100739.13;12254699;19;20246;-89
2024/01/13 14:57:24;;;;;;;;;;;6.70;57.60;;;4.72;61.20;100705.84;12248553;19;19914;-89
2024/01/13 15:01:31;;;;;;;;;;;6.80;57.60;;;5.03;61.03;100754.91;12250451;19;20350;-89
2024/01/13 15:05:34;;;;;;;;;;;6.80;57.60;;;4.78;60.98;100715.16;12257014;19;20365;-89
2024/01/13 15:09:36;;;;;;;;;;;7.00;57.70;;;4.84;61.15;100723.59;12255424;19;19911;-89
2024/01/13 15:13:38;;;;;;;;;;;7.00;57.70;;;4.91;61.22;100721.63;12255379;19;19911;-89
2024/01/13 15:17:40;;;;;;;;;;;6.80;57.60;;;4.74;61.21;100688.53;12252120;19;19930;-89
2024/01/13 15:21:42;;;;;;;;;;;6.80;57.70;;;4.68;61.02;100683.56;12258692;19;19934;-89
2024/01/13 15:25:43;;;;;;;;;;;6.70;57.70;;;4.72;61.15;100685.16;12256189;19;19915;-89
2024/01/13 15:29:45;;;;;;;;;;;6.80;57.80;;;4.76;61.16;100697.13;12255658;19;19919;-90
2024/01/13 15:33:47;;;;;;;;;;;6.70;57.70;;;5.05;61.29;100727.25;12254484;19;19918;-90
2024/01/13 15:37:49;;;;;;;;;;;6.80;57.80;;;4.76;61.28;100698.84;12250361;19;19918;-89
2024/01/13 15:41:50;;;;;;;;;;;6.80;57.80;;;4.71;61.18;100686.06;12254468;19;19925;-89
2024/01/13 15:45:53;;;;;;;;;;;7.00;57.90;;;4.90;61.28;100706.19;12255492;19;19944;-89
2024/01/13 15:49:54;;;;;;;;;;;6.70;57.80;;;5.17;61.27;100744.09;12250897;19;19923;-89
2024/01/13 15:53:56;;;;;;;;;;;6.70;57.80;;;5.12;61.06;100735.63;12253496;19;19918;-87
2024/01/13 15:57:57;;;;;;;;;;;6.80;57.80;;;4.95;61.23;100691.34;12250777;19;19923;-87
2024/01/13 16:01:58;;;;;;;;;;;7.00;57.90;;;5.21;61.31;100731.91;12248038;19;20345;-88
2024/01/13 16:06:00;;;;;;;;;;;6.80;57.80;;;5.16;61.24;100719.13;12249710;19;19918;-88
2024/01/13 16:10:03;;;;;;;;;;;6.80;57.80;;;5.23;61.10;100724.94;12248517;19;20386;-88
2024/01/13 16:14:15;;;;;;;;;;;6.80;57.80;;;5.22;61.06;100716.31;12302714;19;20003;-87
2024/01/13 16:18:17;;;;;;;;;;;6.80;57.90;;;5.17;61.32;100700.09;12293268;19;19927;-87
2024/01/13 16:22:19;;;;;;;;;;;7.10;57.90;;;5.20;61.10;100694.81;12276192;19;19970;-87
2024/01/13 16:26:20;;;;;;;;;;;6.80;58.00;;;5.26;61.25;100704.94;12301907;19;19982;-87
2024/01/13 16:30:22;;;;;;;;;;;6.80;57.90;;;5.15;61.12;100678.59;12302957;19;19919;-87
2024/01/13 16:34:23;;;;;;;;;;;6.90;58.00;;;5.26;61.16;100667.88;12300974;19;20271;-88
2024/01/13 16:38:25;;;;;;;;;;;6.90;58.00;;;5.26;61.13;100673.88;12299741;19;19934;-87
2024/01/13 16:42:27;;;;;;;;;;;6.90;58.00;;;5.25;61.17;100656.66;12298659;19;20485;-87
2024/01/13 16:46:29;;;;;;;;;;;6.90;58.00;;;5.03;61.20;100615.16;12300725;19;19915;-87
2024/01/13 16:50:30;;;;;;;;;;;6.90;58.00;;;5.27;61.17;100648.88;12301207;19;19925;-88
2024/01/13 16:54:37;;;;;;;;;;;6.90;58.10;;;5.25;61.18;100645.47;12300434;19;19915;-88
2024/01/13 16:58:41;;;;;;;;;;;6.90;58.00;;;5.24;61.29;100636.88;12299442;19;19949;-88
2024/01/13 17:02:42;;;;;;;;;;;6.90;57.90;;;5.23;61.12;100635.16;12299457;19;19935;-88
2024/01/13 17:06:47;;;;;;;;;;;6.90;57.90;;;5.30;61.34;100657.38;12300026;19;19915;-88
2024/01/13 17:10:48;;;;;;;;;;;6.90;57.90;;;5.32;61.35;100660.75;12301229;19;20741;-87
2024/01/13 17:14:49;;;;;;;;;;;7.10;58.00;;;5.29;61.17;100657.41;12300855;19;20301;-88
2024/01/13 17:18:51;;;;;;;;;;;6.90;58.00;;;5.27;61.35;100643.69;12296555;19;19926;-87
2024/01/13 17:22:52;;;;;;;;;;;6.90;58.10;;;5.26;61.40;100640.22;12278236;19;20283;-88
2024/01/13 17:26:54;;;;;;;;;;;6.90;58.10;;;5.25;61.41;100629.94;12254375;19;19923;-87
2024/01/13 17:30:55;;;;;;;;;;;6.90;58.10;;;5.20;61.23;100611.13;12254141;19;19932;-87
2024/01/13 17:34:57;;;;;;;;;;;6.90;58.10;;;5.10;61.27;100583.00;12255720;19;19926;-87
2024/01/13 17:38:59;;;;;;;;;;;6.90;58.20;;;5.14;61.46;100588.91;12252209;19;19935;-88
2024/01/13 17:43:02;;;;;;;;;;;6.90;58.10;;;5.20;61.27;100613.72;12254133;19;19935;-87
2024/01/13 17:47:03;;;;;;;;;;;6.90;58.00;;;5.37;61.25;100628.66;12245066;19;19975;-88
2024/01/13 17:51:06;;;;;;;;;;;7.00;58.20;;;5.01;61.42;100570.38;12247862;19;19939;-87
2024/01/13 17:55:08;;;;;;;;;;;7.00;58.20;;;5.32;61.33;100614.16;12248056;19;19911;-87
2024/01/13 17:59:09;;;;;;;;;;;6.90;58.40;;;5.28;61.41;100597.03;12244244;19;20022;-87
2024/01/13 18:03:11;;;;;;;;;;;7.00;58.10;;;5.26;61.29;100601.41;12247005;19;19911;-87
2024/01/13 18:07:15;;;;;;;;;;;7.00;58.10;;;5.32;61.40;100614.16;12244081;19;19990;-87
2024/01/13 18:11:17;;;;;;;;;;;7.00;58.20;;;5.35;61.31;100609.75;12249064;19;20334;-87
2024/01/13 18:15:20;;;;;;;;;;;7.00;58.20;;;5.35;61.31;100595.06;12248198;19;19921;-87
2024/01/13 18:19:21;;;;;;;;;;;7.00;58.10;;;5.43;61.48;100603.41;12248519;19;19974;-87
2024/01/13 18:23:22;;;;;;;;;;;7.00;58.20;;;5.24;61.41;100571.31;12250466;19;20354;-87
2024/01/13 18:27:24;;;;;;;;;;;7.00;58.10;;;5.46;61.27;100599.88;12244012;19;19918;-86
2024/01/13 18:31:25;;;;;;;;;;;7.20;58.20;;;5.50;61.44;100611.78;12248112;19;19930;-86
2024/01/13 18:35:28;;;;;;;;;;;7.10;58.20;;;5.50;61.47;100604.03;12244654;19;19943;-87
2024/01/13 18:39:29;;;;;;;;;;;7.10;58.20;;;5.30;61.34;100565.91;12247831;19;19998;-87